Time;durP1;ratioP1;P1;durP2;ratioP2;P2;SDS_P1;SDS_P2;PMS_P1;PMS_P2;Temp;Humidity;BMP_temperature;BMP_pressure;BME280_temperature;BME280_humidity;BME280_pressure;Samples;Min_cycle;Max_cycle;Signal;HPM_P1;HPM_P2
2021/01/07 00:02:15;;;;;;;22.60;19.45;;;;;;;1.19;84.20;97849.77;1720240;82;21362;-65
2021/01/07 00:04:43;;;;;;;19.35;17.35;;;;;;;1.15;84.27;97870.64;1798313;79;21441;-66
2021/01/07 00:07:11;;;;;;;21.70;18.73;;;;;;;1.10;84.32;97862.88;1723873;82;21015;-66
2021/01/07 00:09:39;;;;;;;22.55;18.77;;;;;;;1.05;84.38;97857.77;1726765;83;21569;-65
2021/01/07 00:12:07;;;;;;;24.40;17.73;;;;;;;1.00;84.38;97859.75;1770900;81;20988;-65
2021/01/07 00:14:34;;;;;;;20.12;17.07;;;;;;;0.95;84.48;97867.01;1771003;81;20933;-66
2021/01/07 00:17:02;;;;;;;22.00;17.80;;;;;;;0.89;84.63;97860.16;1697797;84;23598;-66
2021/01/07 00:19:29;;;;;;;22.37;18.40;;;;;;;0.84;84.77;97859.96;1770895;81;21985;-66
2021/01/07 00:21:57;;;;;;;22.20;18.60;;;;;;;0.81;84.80;97851.67;1697739;84;21404;-66
2021/01/07 00:24:25;;;;;;;24.23;19.02;;;;;;;0.78;84.78;97848.30;1770899;81;21499;-65
2021/01/07 00:26:52;;;;;;;24.40;19.48;;;;;;;0.71;84.90;97843.25;1697815;83;21003;-67
2021/01/07 00:29:20;;;;;;;25.80;20.25;;;;;;;0.68;85.16;97846.01;1770891;80;21326;-68
2021/01/07 00:31:48;;;;;;;24.92;20.27;;;;;;;0.65;85.40;97849.23;1770851;81;20905;-66
2021/01/07 00:34:16;;;;;;;23.85;19.52;;;;;;;0.61;85.57;97848.47;1697723;84;20944;-66
2021/01/07 00:36:44;;;;;;;22.85;19.17;;;;;;;0.60;85.65;97857.34;1770889;81;21027;-66
2021/01/07 00:39:12;;;;;;;24.72;19.57;;;;;;;0.56;85.78;97861.00;1697697;83;21024;-66
2021/01/07 00:41:40;;;;;;;23.83;18.73;;;;;;;0.54;85.88;97860.21;1770956;81;21438;-66
2021/01/07 00:44:07;;;;;;;23.07;19.00;;;;;;;0.50;85.88;97860.76;1697646;83;20917;-66
2021/01/07 00:46:35;;;;;;;23.47;19.45;;;;;;;0.47;85.85;97861.34;1770960;81;20925;-66
2021/01/07 00:49:02;;;;;;;23.20;19.70;;;;;;;0.43;85.84;97855.80;1697566;84;21016;-66
2021/01/07 00:51:32;;;;;;;20.72;18.25;;;;;;;0.39;85.72;97852.84;1770992;81;20961;-66
2021/01/07 00:54:00;;;;;;;22.17;18.45;;;;;;;0.37;85.65;97859.98;1697685;84;21436;-67
2021/01/07 00:56:28;;;;;;;33.58;20.32;;;;;;;0.33;85.69;97857.45;1738588;81;20928;-66
2021/01/07 00:58:55;;;;;;;24.20;19.62;;;;;;;0.29;85.76;97855.83;1770844;81;20940;-65
2021/01/07 01:01:23;;;;;;;22.67;19.15;;;;;;;0.25;85.89;97855.98;1697676;84;21064;-65
2021/01/07 01:03:50;;;;;;;29.02;22.85;;;;;;;0.23;85.96;97849.44;1770933;81;21003;-65
2021/01/07 01:06:18;;;;;;;29.63;22.52;;;;;;;0.22;85.99;97838.93;1697677;84;21394;-64
2021/01/07 01:08:46;;;;;;;30.17;22.37;;;;;;;0.20;86.06;97840.78;1802167;79;20889;-66
2021/01/07 01:11:13;;;;;;;32.03;22.52;;;;;;;0.19;86.19;97849.17;1780936;79;21023;-65
2021/01/07 01:13:41;;;;;;;25.23;21.57;;;;;;;0.16;86.34;97850.60;1805678;79;20972;-66
2021/01/07 01:16:09;;;;;;;27.20;22.40;;;;;;;0.14;86.46;97843.17;1739255;82;21070;-65
2021/01/07 01:18:37;;;;;;;32.25;23.45;;;;;;;0.11;86.51;97839.31;1769941;81;21206;-66
2021/01/07 01:21:04;;;;;;;27.48;22.25;;;;;;;0.09;86.56;97839.38;1739432;82;20984;-66
2021/01/07 01:23:32;;;;;;;35.85;24.87;;;;;;;0.07;86.61;97836.41;1739479;82;20988;-66
2021/01/07 01:25:59;;;;;;;40.85;27.70;;;;;;;0.05;86.66;97832.94;1769879;81;21298;-66
2021/01/07 01:28:26;;;;;;;34.95;26.27;;;;;;;0.04;86.95;97825.48;1737851;82;20941;-66
2021/01/07 01:30:54;;;;;;;41.68;26.77;;;;;;;0.03;87.08;97832.14;1739525;82;21395;-65
2021/01/07 01:33:22;;;;;;;38.63;26.48;;;;;;;0.02;87.23;97831.72;1739389;82;21009;-65
2021/01/07 01:35:49;;;;;;;36.08;26.12;;;;;;;0.02;87.35;97831.72;1769935;81;20885;-65
2021/01/07 01:38:18;;;;;;;39.33;26.10;;;;;;;0.02;87.32;97827.33;1739418;82;20894;-66
2021/01/07 01:40:46;;;;;;;36.30;25.10;;;;;;;0.02;87.26;97827.77;1739472;82;20949;-66
2021/01/07 01:43:14;;;;;;;36.17;24.23;;;;;;;0.00;87.32;97821.25;1770006;81;21162;-66
2021/01/07 01:45:42;;;;;;;31.70;24.20;;;;;;;-0.01;87.43;97799.71;1737739;82;21000;-65
2021/01/07 01:48:10;;;;;;;32.20;22.73;;;;;;;-0.03;87.47;97785.25;1739380;82;21040;-65
2021/01/07 01:50:37;;;;;;;30.40;22.67;;;;;;;-0.03;87.46;97793.17;1769969;81;20929;-65
2021/01/07 01:53:05;;;;;;;29.48;22.13;;;;;;;-0.03;87.50;97797.13;1739484;82;20940;-65
2021/01/07 01:55:32;;;;;;;29.95;23.10;;;;;;;-0.04;87.58;97792.75;1739392;82;21341;-66
2021/01/07 01:58:01;;;;;;;31.23;22.80;;;;;;;-0.05;87.68;97780.49;1769880;81;21024;-66
2021/01/07 02:00:29;;;;;;;46.37;21.40;;;;;;;-0.05;87.74;97772.57;1739251;82;20969;-66
2021/01/07 02:02:56;;;;;;;23.67;19.10;;;;;;;-0.07;87.75;97772.21;1739381;82;21024;-65
2021/01/07 02:05:23;;;;;;;24.52;19.65;;;;;;;-0.07;87.76;97773.06;1770065;81;21445;-65
2021/01/07 02:07:51;;;;;;;26.40;20.72;;;;;;;-0.06;87.74;97777.91;1737560;82;23585;-65
2021/01/07 02:10:21;;;;;;;25.48;20.02;;;;;;;-0.05;87.62;97776.53;1739176;82;20980;-65
2021/01/07 02:12:49;;;;;;;28.12;21.35;;;;;;;-0.05;87.72;97775.65;1769881;81;20889;-65
2021/01/07 02:15:18;;;;;;;24.10;20.00;;;;;;;-0.05;87.79;97787.09;1737840;82;20953;-65
2021/01/07 02:17:45;;;;;;;22.87;19.90;;;;;;;-0.04;87.88;97792.75;1739480;82;21012;-65
2021/01/07 02:20:14;;;;;;;27.30;20.45;;;;;;;-0.02;87.92;97779.50;1739414;82;21470;-66
2021/01/07 02:22:42;;;;;;;22.48;19.52;;;;;;;0.01;87.95;97769.30;1769861;81;20988;-64
2021/01/07 02:25:12;;;;;;;25.12;19.95;;;;;;;0.02;87.93;97769.23;1735254;82;21012;-65
2021/01/07 02:27:39;;;;;;;27.80;22.60;;;;;;;0.03;87.88;97767.45;1692171;82;20948;-65
2021/01/07 02:30:09;;;;;;;21.68;18.90;;;;;;;0.04;87.86;97769.18;1739406;82;20950;-65
2021/01/07 02:32:36;;;;;;;27.95;21.45;;;;;;;0.05;87.87;97766.92;1770021;81;22241;-66
2021/01/07 02:35:06;;;;;;;29.77;22.17;;;;;;;0.06;87.90;97758.95;1739333;82;21020;-65
2021/01/07 02:37:36;;;;;;;24.75;20.77;;;;;;;0.08;87.89;97754.93;1737861;82;20942;-65
2021/01/07 02:40:06;;;;;;;24.63;21.00;;;;;;;0.08;87.81;97757.12;1769902;81;20945;-65
2021/01/07 02:42:33;;;;;;;31.17;21.52;;;;;;;0.09;87.73;97765.91;1739486;82;21008;-65
2021/01/07 02:45:03;;;;;;;27.37;21.50;;;;;;;0.08;87.75;97771.66;1778396;80;21367;-65
2021/01/07 02:47:30;;;;;;;25.23;21.35;;;;;;;0.09;87.76;97776.47;1805783;79;21062;-65
2021/01/07 02:49:59;;;;;;;21.12;18.62;;;;;;;0.09;87.62;97761.94;1739357;82;20946;-64
2021/01/07 02:52:27;;;;;;;24.95;20.90;;;;;;;0.08;87.40;97761.09;1769886;81;20889;-66
2021/01/07 02:54:55;;;;;;;23.18;19.67;;;;;;;0.09;87.28;97769.39;1739432;82;20929;-65
2021/01/07 02:57:22;;;;;;;23.47;18.98;;;;;;;0.08;87.26;97763.73;1769961;81;21386;-65
2021/01/07 02:59:50;;;;;;;24.45;21.20;;;;;;;0.09;87.28;97765.44;1739267;82;20996;-66
2021/01/07 03:02:18;;;;;;;26.73;21.65;;;;;;;0.09;87.28;97756.66;1739362;82;20933;-65
2021/01/07 03:04:46;;;;;;;24.80;20.23;;;;;;;0.10;87.22;97750.47;1769902;81;21501;-64
2021/01/07 03:07:14;;;;;;;22.37;19.07;;;;;;;0.12;87.14;97753.91;1739405;82;20996;-66
2021/01/07 03:09:43;;;;;;;26.80;21.87;;;;;;;0.13;87.00;97743.28;1739300;82;21019;-65
2021/01/07 03:12:16;;;;;;;21.97;19.60;;;;;;;0.12;86.90;97738.91;1769824;81;20980;-65
2021/01/07 03:14:44;;;;;;;27.98;22.93;;;;;;;0.14;86.98;97741.50;1739562;82;21000;-65
2021/01/07 03:17:13;;;;;;;25.43;20.82;;;;;;;0.15;87.03;97740.59;1739265;82;21008;-65
2021/01/07 03:19:41;;;;;;;28.65;22.70;;;;;;;0.17;87.08;97739.63;1769890;81;21454;-65
2021/01/07 03:22:08;;;;;;;25.23;21.07;;;;;;;0.17;86.97;97744.02;1739525;82;22134;-65
2021/01/07 03:24:37;;;;;;;26.62;22.17;;;;;;;0.18;86.84;97747.08;1739323;82;20905;-65
2021/01/07 03:27:05;;;;;;;25.48;19.75;;;;;;;0.19;86.92;97754.09;1769836;81;20941;-65
2021/01/07 03:29:33;;;;;;;23.80;20.08;;;;;;;0.18;87.03;97736.52;1739251;82;20937;-65
2021/01/07 03:32:00;;;;;;;27.25;21.65;;;;;;;0.20;87.08;97737.77;1739442;82;21048;-65
2021/01/07 03:34:28;;;;;;;22.48;19.82;;;;;;;0.18;87.09;97736.04;1769918;81;21198;-66
2021/01/07 03:36:57;;;;;;;35.78;26.75;;;;;;;0.21;87.08;97738.19;1739023;82;20980;-65
2021/01/07 03:39:25;;;;;;;26.52;20.10;;;;;;;0.22;87.03;97717.00;1739265;82;20960;-65
2021/01/07 03:41:53;;;;;;;26.07;22.00;;;;;;;0.23;87.07;97722.66;1769878;81;20937;-65
2021/01/07 03:44:21;;;;;;;25.43;21.90;;;;;;;0.24;87.15;97728.36;1739244;82;21024;-65
2021/01/07 03:46:51;;;;;;;27.52;20.62;;;;;;;0.24;87.20;97742.88;1739345;82;21221;-64
2021/01/07 03:49:19;;;;;;;26.60;20.43;;;;;;;0.27;87.09;97750.69;1769831;81;20901;-64
2021/01/07 03:51:46;;;;;;;24.80;19.37;;;;;;;0.29;86.95;97746.20;1737790;82;20941;-65
2021/01/07 03:54:14;;;;;;;27.25;20.80;;;;;;;0.29;86.93;97734.31;1739275;82;20988;-64
2021/01/07 03:56:41;;;;;;;31.00;22.32;;;;;;;0.30;86.78;97718.88;1769910;81;20980;-65
2021/01/07 03:59:09;;;;;;;27.27;21.40;;;;;;;0.31;86.54;97720.58;1739432;82;22391;-64
2021/01/07 04:01:36;;;;;;;34.03;23.35;;;;;;;0.31;86.44;97711.33;1739348;82;20909;-65
2021/01/07 04:04:04;;;;;;;27.80;21.97;;;;;;;0.30;86.45;97702.14;1769840;81;20984;-66
2021/01/07 04:06:32;;;;;;;28.60;22.10;;;;;;;0.32;86.45;97699.86;1739204;82;20988;-66
2021/01/07 04:09:00;;;;;;;27.58;22.02;;;;;;;0.33;86.46;97704.66;1750091;81;21035;-66
2021/01/07 04:11:27;;;;;;;25.37;21.50;;;;;;;0.33;86.58;97709.52;1789721;80;21447;-66
2021/01/07 04:13:56;;;;;;;27.60;21.95;;;;;;;0.33;86.72;97688.38;1828626;78;20888;-65
2021/01/07 04:16:24;;;;;;;26.90;21.68;;;;;;;0.35;86.72;97685.20;1758442;81;20989;-64
2021/01/07 04:18:52;;;;;;;32.40;22.45;;;;;;;0.35;86.67;97679.92;1789627;80;21584;-65
2021/01/07 04:21:21;;;;;;;24.65;20.55;;;;;;;0.37;86.72;97683.83;1828685;78;21023;-65
2021/01/07 04:23:48;;;;;;;30.57;21.07;;;;;;;0.38;86.81;97678.95;1758457;81;21400;-65
2021/01/07 04:26:16;;;;;;;28.12;21.45;;;;;;;0.40;86.94;97685.02;1789577;80;20931;-65
2021/01/07 04:28:44;;;;;;;28.42;21.62;;;;;;;0.42;86.98;97690.25;1828674;78;20916;-66
2021/01/07 04:31:13;;;;;;;29.35;22.25;;;;;;;0.43;86.97;97691.98;1828606;78;20960;-65
2021/01/07 04:33:40;;;;;;;27.98;21.82;;;;;;;0.44;86.98;97685.31;1758486;81;20989;-66
2021/01/07 04:36:10;;;;;;;32.78;23.70;;;;;;;0.46;86.95;97681.29;1789656;80;21036;-65
2021/01/07 04:38:38;;;;;;;38.17;24.60;;;;;;;0.49;86.88;97683.78;1828580;78;20943;-66
2021/01/07 04:41:05;;;;;;;41.95;24.43;;;;;;;0.49;86.84;97689.06;1758281;81;20936;-66
2021/01/07 04:43:34;;;;;;;39.80;24.92;;;;;;;0.48;86.88;97682.08;1789654;80;21004;-64
2021/01/07 04:46:02;;;;;;;38.88;24.02;;;;;;;0.48;86.87;97679.44;1828682;78;20988;-65
2021/01/07 04:48:30;;;;;;;33.25;23.20;;;;;;;0.48;86.92;97675.47;1828658;78;23498;-66
2021/01/07 04:50:59;;;;;;;29.65;21.93;;;;;;;0.48;86.93;97671.52;1828620;78;20952;-65
2021/01/07 04:53:26;;;;;;;32.03;23.60;;;;;;;0.50;86.96;97669.66;1758399;81;20929;-65
2021/01/07 04:55:54;;;;;;;32.17;21.77;;;;;;;0.50;86.99;97667.02;1789665;80;20979;-65
2021/01/07 04:58:21;;;;;;;24.90;20.20;;;;;;;0.52;87.05;97675.73;1828649;78;20975;-65
2021/01/07 05:00:49;;;;;;;25.08;19.15;;;;;;;0.53;87.07;97661.61;1828692;78;21382;-65
2021/01/07 05:03:21;;;;;;;23.42;19.02;;;;;;;0.54;86.94;97660.70;1828165;78;47821;-65
2021/01/07 05:05:53;;;;;;;24.40;20.17;;;;;;;0.55;86.87;97654.47;1758436;81;20945;-65
2021/01/07 05:08:20;;;;;;;23.22;19.55;;;;;;;0.54;86.82;97646.16;1756466;80;21067;-67
2021/01/07 05:10:47;;;;;;;32.50;21.17;;;;;;;0.54;86.77;97639.55;1737900;82;21337;-63
2021/01/07 05:13:17;;;;;;;30.02;21.77;;;;;;;0.53;86.82;97641.31;1739226;82;21399;-65
2021/01/07 05:15:44;;;;;;;25.35;19.50;;;;;;;0.54;86.85;97637.77;1769694;81;21449;-64
2021/01/07 05:18:12;;;;;;;28.07;21.42;;;;;;;0.56;86.89;97636.85;1737703;82;21017;-66
2021/01/07 05:20:41;;;;;;;32.90;23.90;;;;;;;0.56;86.90;97635.53;1739310;82;21071;-64
2021/01/07 05:23:09;;;;;;;38.50;25.82;;;;;;;0.56;86.88;97633.73;1769815;81;20929;-65
2021/01/07 05:25:41;;;;;;;38.10;23.95;;;;;;;0.57;86.95;97633.27;1739252;82;21209;-65
2021/01/07 05:28:09;;;;;;;29.70;19.32;;;;;;;0.59;86.88;97629.64;1746451;80;20936;-65
2021/01/07 05:30:37;;;;;;;40.28;25.92;;;;;;;0.60;86.86;97630.05;1778360;80;20945;-65
2021/01/07 05:33:08;;;;;;;34.92;25.15;;;;;;;0.60;86.85;97626.09;1778300;80;20988;-65
2021/01/07 05:35:36;;;;;;;39.88;26.52;;;;;;;0.61;86.83;97629.11;1805795;79;21330;-65
2021/01/07 05:38:08;;;;;;;32.80;22.85;;;;;;;0.60;86.79;97628.73;1739217;82;21476;-65
2021/01/07 05:40:36;;;;;;;23.85;20.27;;;;;;;0.62;86.73;97640.56;1769992;81;20941;-65
2021/01/07 05:43:12;;;;;;;28.30;20.62;;;;;;;0.63;86.67;97641.82;1739294;82;20897;-65
2021/01/07 05:45:43;;;;;;;25.02;18.12;;;;;;;0.63;86.62;97635.22;1739203;82;21020;-66
2021/01/07 05:48:11;;;;;;;26.97;21.15;;;;;;;0.64;86.60;97629.45;1769808;81;21016;-66
2021/01/07 05:50:41;;;;;;;26.80;19.77;;;;;;;0.63;86.51;97627.28;1739242;82;21201;-65
2021/01/07 05:53:08;;;;;;;24.80;20.23;;;;;;;0.64;86.57;97626.81;1739243;82;20960;-65
2021/01/07 05:55:36;;;;;;;26.85;20.57;;;;;;;0.65;86.57;97633.83;1769790;81;21058;-65
2021/01/07 05:58:03;;;;;;;30.92;21.82;;;;;;;0.66;86.61;97625.84;1738821;82;20953;-65
2021/01/07 06:00:33;;;;;;;30.77;21.68;;;;;;;0.66;86.58;97611.30;1739352;82;21011;-66
2021/01/07 06:03:02;;;;;;;29.90;21.65;;;;;;;0.68;86.52;97616.52;1769784;81;21198;-66
2021/01/07 06:05:29;;;;;;;28.87;22.62;;;;;;;0.66;86.43;97615.27;1737822;82;21394;-65
2021/01/07 06:07:59;;;;;;;31.77;23.47;;;;;;;0.67;86.43;97616.96;1739386;82;20941;-66
2021/01/07 06:10:27;;;;;;;31.87;24.10;;;;;;;0.67;86.47;97618.28;1779667;80;20933;-63
2021/01/07 06:12:55;;;;;;;32.03;22.35;;;;;;;0.68;86.60;97628.41;1816979;79;20963;-65
2021/01/07 06:15:23;;;;;;;29.57;22.45;;;;;;;0.68;86.65;97635.88;1816982;79;21269;-65
2021/01/07 06:17:51;;;;;;;31.40;22.45;;;;;;;0.70;86.66;97637.98;1816787;79;21094;-66
2021/01/07 06:20:20;;;;;;;26.12;20.65;;;;;;;0.70;86.67;97630.05;1758180;79;20932;-65
2021/01/07 06:22:52;;;;;;;28.70;21.20;;;;;;;0.72;86.64;97631.31;1749922;82;20946;-64
2021/01/07 06:25:21;;;;;;;29.37;22.77;;;;;;;0.72;86.61;97628.20;1780902;80;20900;-65
2021/01/07 06:27:50;;;;;;;31.05;21.80;;;;;;;0.73;86.57;97629.08;1816995;79;21524;-65
2021/01/07 06:30:23;;;;;;;27.93;21.07;;;;;;;0.74;86.58;97645.78;1749950;82;20965;-65
2021/01/07 06:33:07;;;;;;;26.97;20.75;;;;;;;0.74;86.56;97645.78;1780935;80;21015;-65
2021/01/07 06:35:38;;;;;;;28.57;20.82;;;;;;;0.75;86.57;97647.05;1817160;79;20916;-65
2021/01/07 06:38:06;;;;;;;27.65;20.97;;;;;;;0.76;86.46;97643.92;1749974;82;20902;-65
2021/01/07 06:40:39;;;;;;;25.08;19.42;;;;;;;0.76;86.32;97638.64;1780930;80;21216;-65
2021/01/07 06:43:11;;;;;;;;;;;;;;;0.75;86.45;97636.94;1819616;79;20947;-64
2021/01/07 06:45:38;;;;;;;21.17;17.42;;;;;;;0.76;86.53;97639.96;1816925;79;20129;-66
2021/01/07 06:48:08;;;;;;;27.02;18.98;;;;;;;0.74;86.54;97643.14;1749947;81;20938;-64
2021/01/07 06:50:36;;;;;;;25.43;19.48;;;;;;;0.74;86.53;97649.28;1724712;80;20940;-65
2021/01/07 06:53:04;;;;;;;30.25;20.27;;;;;;;0.76;86.56;97655.38;1817009;79;21436;-65
2021/01/07 06:55:31;;;;;;;33.28;21.93;;;;;;;0.76;86.62;97647.45;1749992;82;21458;-66
2021/01/07 06:58:00;;;;;;;28.77;19.87;;;;;;;0.77;86.61;97661.52;1780863;80;20984;-65
2021/01/07 07:00:28;;;;;;;28.23;21.40;;;;;;;0.80;86.71;97665.36;1816839;79;20915;-66
2021/01/07 07:03:02;;;;;;;24.70;17.87;;;;;;;0.81;86.81;97668.41;1749989;81;21356;-66
2021/01/07 07:05:36;;;;;;;;;;;;;;;0.86;86.79;97669.07;1783581;80;21384;-67
2021/01/07 07:08:10;;;;;;;26.52;19.50;;;;;;;0.88;86.79;97677.78;1744244;82;20138;-67
2021/01/07 07:10:44;;;;;;;29.85;19.95;;;;;;;0.89;86.88;97684.80;1801218;79;20909;-66
2021/01/07 07:13:19;;;;;;;31.05;22.05;;;;;;;0.92;86.91;97683.83;1720195;83;20952;-67
2021/01/07 07:15:49;;;;;;;26.30;20.68;;;;;;;0.93;86.86;97689.05;1798499;79;20933;-66
2021/01/07 07:18:35;;;;;;;27.48;17.92;;;;;;;0.95;86.72;97685.88;1720181;83;22286;-66
2021/01/07 07:21:21;;;;;;;26.02;19.27;;;;;;;0.97;86.56;97695.06;1798443;79;20985;-66
2021/01/07 07:23:48;;;;;;;26.40;19.00;;;;;;;0.98;86.53;97697.65;1798389;79;20937;-66
2021/01/07 07:26:39;;;;;;;22.10;18.30;;;;;;;0.98;86.65;97704.25;1720073;83;20932;-67
2021/01/07 07:29:13;;;;;;;27.52;20.40;;;;;;;1.00;86.73;97711.66;1798412;79;20917;-67
2021/01/07 07:31:46;;;;;;;29.80;21.68;;;;;;;1.01;86.68;97719.12;1798443;79;21409;-67
2021/01/07 07:34:15;;;;;;;30.93;22.40;;;;;;;1.02;86.71;97715.08;1798609;79;20996;-67
2021/01/07 07:36:43;;;;;;;27.77;21.05;;;;;;;1.04;86.71;97726.48;1720121;83;20996;-67
2021/01/07 07:39:11;;;;;;;33.10;23.38;;;;;;;1.06;86.70;97731.23;1798327;79;21035;-68
2021/01/07 07:41:42;;;;;;;31.33;23.27;;;;;;;1.07;86.64;97733.41;1720153;83;20889;-68
2021/01/07 07:44:09;;;;;;;39.38;26.20;;;;;;;1.09;86.67;97747.45;1797821;79;22279;-67
2021/01/07 07:46:37;;;;;;;36.77;24.77;;;;;;;1.08;86.58;97743.92;1719989;83;21409;-66
2021/01/07 07:49:09;;;;;;;33.38;23.47;;;;;;;1.10;86.46;97740.37;1798322;79;20925;-68
2021/01/07 07:51:36;;;;;;;35.30;24.90;;;;;;;1.11;86.44;97734.16;1720105;83;20924;-67
2021/01/07 07:54:07;;;;;;;37.03;26.95;;;;;;;1.11;86.30;97729.72;1798384;79;20945;-67
2021/01/07 07:56:35;;;;;;;38.13;25.77;;;;;;;1.10;86.14;97732.44;1720114;83;21375;-67
2021/01/07 07:59:06;;;;;;;33.23;21.35;;;;;;;1.08;86.21;97747.89;1797711;79;21012;-68
2021/01/07 08:01:47;;;;;;;31.82;22.35;;;;;;;1.04;86.34;97754.25;1720130;83;21465;-68
2021/01/07 08:04:18;;;;;;;21.85;15.83;;;;;;;1.04;86.39;97749.41;1798420;79;20925;-67
2021/01/07 08:06:47;;;;;;;26.73;19.87;;;;;;;1.02;86.40;97761.36;1798351;79;20960;-67
2021/01/07 08:09:17;;;;;;;22.15;17.92;;;;;;;1.00;86.44;97764.55;1721185;82;21313;-66
2021/01/07 08:11:51;;;;;;;22.75;17.57;;;;;;;0.97;86.50;97758.06;1726777;81;21027;-67
2021/01/07 08:14:24;;;;;;;21.23;16.23;;;;;;;0.95;86.50;97748.02;1771081;81;21350;-67
2021/01/07 08:16:56;;;;;;;17.77;15.30;;;;;;;0.95;86.49;97750.66;1771002;81;21549;-67
2021/01/07 08:19:33;;;;;;;19.30;16.23;;;;;;;0.94;86.48;97745.44;1697819;84;21485;-69
2021/01/07 08:22:03;;;;;;;17.95;15.50;;;;;;;0.91;86.52;97751.70;1770941;81;21335;-66
2021/01/07 08:24:31;;;;;;;16.95;14.55;;;;;;;0.88;86.60;97748.73;1697641;84;21532;-67
2021/01/07 08:27:07;;;;;;;13.85;12.45;;;;;;;0.88;86.66;97750.50;1770953;80;20928;-67
2021/01/07 08:29:38;;;;;;;14.50;12.20;;;;;;;0.87;86.71;97750.12;1697742;83;20944;-67
2021/01/07 08:32:06;;;;;;;15.20;12.18;;;;;;;0.87;86.78;97748.33;1771003;81;20921;-67
2021/01/07 08:34:34;;;;;;;14.23;12.78;;;;;;;0.86;86.86;97741.78;1699294;83;22294;-67
2021/01/07 08:37:13;;;;;;;15.18;13.53;;;;;;;0.86;86.91;97743.09;1770830;80;20941;-67
2021/01/07 08:39:41;;;;;;;14.33;12.80;;;;;;;0.85;87.04;97740.92;1697720;82;21067;-67
2021/01/07 08:42:09;;;;;;;15.55;13.45;;;;;;;0.87;87.12;97739.55;1770939;81;20928;-67
2021/01/07 08:44:37;;;;;;;13.95;12.45;;;;;;;0.88;87.04;97733.31;1770985;81;20917;-68
2021/01/07 08:47:21;;;;;;;14.15;12.68;;;;;;;0.89;87.06;97729.75;1697694;83;21356;-67
2021/01/07 08:50:14;;;;;;;16.02;13.35;;;;;;;0.91;87.18;97725.25;1743569;81;21390;-66
2021/01/07 08:52:51;;;;;;;14.85;13.28;;;;;;;0.92;87.28;97726.13;1770965;81;20997;-68
2021/01/07 08:55:20;;;;;;;16.15;14.03;;;;;;;0.93;87.41;97720.78;1771011;81;21347;-68
2021/01/07 08:57:47;;;;;;;14.53;13.03;;;;;;;0.98;87.48;97724.09;1770940;81;21370;-68
2021/01/07 09:00:20;;;;;;;14.40;12.90;;;;;;;1.01;87.46;97727.93;1697661;84;21398;-67
2021/01/07 09:02:54;;;;;;;14.85;13.35;;;;;;;1.03;87.46;97728.72;1764902;81;20941;-66
2021/01/07 09:05:22;;;;;;;14.43;12.90;;;;;;;1.07;87.37;97723.71;1676246;84;21023;-68
2021/01/07 09:07:50;;;;;;;15.60;13.98;;;;;;;1.08;87.19;97717.47;1770938;81;21367;-68
2021/01/07 09:10:25;;;;;;;17.57;15.30;;;;;;;1.11;87.10;97719.61;1712971;82;21517;-67
2021/01/07 09:12:52;;;;;;;21.17;16.10;;;;;;;1.13;87.02;97719.08;1781697;80;21337;-65
2021/01/07 09:15:24;;;;;;;18.73;15.18;;;;;;;1.16;87.04;97722.45;1782051;80;20932;-67
2021/01/07 09:17:55;;;;;;;23.38;17.77;;;;;;;1.19;87.02;97718.82;1781784;80;22135;-66
2021/01/07 09:20:33;;;;;;;31.17;24.57;;;;;;;1.21;87.03;97709.88;1781708;80;21576;-67
2021/01/07 09:23:07;;;;;;;31.27;24.80;;;;;;;1.23;86.98;97710.69;1782314;80;20932;-68
2021/01/07 09:25:35;;;;;;;26.27;21.45;;;;;;;1.24;86.81;97704.93;1782182;80;21268;-68
2021/01/07 09:28:03;;;;;;;22.40;18.98;;;;;;;1.25;86.72;97689.46;1782182;80;20995;-69
2021/01/07 09:30:31;;;;;;;20.92;18.32;;;;;;;1.29;86.66;97685.73;1782282;80;21564;-67
2021/01/07 09:32:59;;;;;;;29.18;22.90;;;;;;;1.32;86.51;97687.41;1782133;80;20932;-69
2021/01/07 09:35:27;;;;;;;25.82;21.77;;;;;;;1.31;86.32;97694.49;1782207;80;20940;-67
2021/01/07 09:37:56;;;;;;;27.27;23.27;;;;;;;1.33;86.36;97691.78;1781338;80;21389;-69
2021/01/07 09:40:24;;;;;;;27.55;22.30;;;;;;;1.35;86.42;97698.70;1782334;80;20939;-68
2021/01/07 09:42:53;;;;;;;26.48;21.25;;;;;;;1.38;86.43;97701.22;1782323;80;20944;-69
2021/01/07 09:45:20;;;;;;;26.23;22.50;;;;;;;1.43;86.33;97695.28;1782298;80;21980;-69
2021/01/07 09:47:48;;;;;;;29.85;23.62;;;;;;;1.51;86.37;97694.07;1782301;80;21062;-68
2021/01/07 09:50:19;;;;;;;29.50;22.75;;;;;;;1.60;86.58;97694.98;1782359;80;21387;-68
2021/01/07 09:52:45;;;;;;;28.90;22.40;;;;;;;1.69;86.61;97693.70;1782261;80;20948;-68
2021/01/07 09:55:13;;;;;;;27.35;20.65;;;;;;;1.80;86.53;97698.08;1782383;80;21381;-69
2021/01/07 09:57:47;;;;;;;22.73;19.42;;;;;;;1.91;86.10;97701.57;1782279;80;20979;-66
2021/01/07 10:00:13;;;;;;;25.00;19.87;;;;;;;2.00;85.64;97709.06;1782307;80;21035;-69
2021/01/07 10:02:41;;;;;;;29.77;22.65;;;;;;;2.08;85.44;97698.13;1782329;80;21191;-68
2021/01/07 10:05:11;;;;;;;27.17;21.52;;;;;;;2.15;85.35;97704.39;1782252;80;20940;-68
2021/01/07 10:07:38;;;;;;;26.73;20.35;;;;;;;2.21;85.52;97693.98;1782309;80;21374;-68
2021/01/07 10:10:07;;;;;;;19.73;15.78;;;;;;;2.28;85.55;97690.58;1786999;79;20992;-67
2021/01/07 10:12:34;;;;;;;19.23;15.90;;;;;;;2.35;85.47;97688.04;1739466;82;21002;-68
2021/01/07 10:15:02;;;;;;;16.27;13.28;;;;;;;2.42;85.33;97677.52;1769941;81;22601;-67
2021/01/07 10:17:30;;;;;;;19.48;15.85;;;;;;;2.47;85.34;97675.50;1739335;82;21051;-67
2021/01/07 10:19:57;;;;;;;15.53;13.93;;;;;;;2.52;85.15;97676.16;1739421;82;20893;-66
2021/01/07 10:22:25;;;;;;;15.45;13.45;;;;;;;2.55;84.93;97673.80;1769936;81;21000;-67
2021/01/07 10:24:55;;;;;;;14.53;12.98;;;;;;;2.59;84.90;97683.82;1739443;82;21569;-68
2021/01/07 10:27:22;;;;;;;15.23;13.60;;;;;;;2.61;84.84;97674.84;1739349;82;21257;-67
2021/01/07 10:29:50;;;;;;;16.10;14.43;;;;;;;2.65;85.02;97671.11;1769894;80;20943;-66
2021/01/07 10:32:18;;;;;;;17.67;15.95;;;;;;;2.74;85.08;97672.44;1739421;82;20952;-67
2021/01/07 10:34:48;;;;;;;18.02;15.13;;;;;;;2.81;85.45;97667.23;1739382;82;20973;-66
2021/01/07 10:37:18;;;;;;;18.60;16.62;;;;;;;2.90;85.69;97668.55;1769988;81;20945;-67
2021/01/07 10:39:50;;;;;;;16.48;14.47;;;;;;;2.99;85.79;97661.94;1737849;82;21271;-67
2021/01/07 10:42:18;;;;;;;20.37;17.17;;;;;;;3.09;85.95;97659.23;1739333;82;20937;-66
2021/01/07 10:44:46;;;;;;;18.50;16.52;;;;;;;3.18;85.91;97654.75;1769959;81;20929;-67
2021/01/07 10:47:15;;;;;;;25.48;20.17;;;;;;;3.28;85.98;97654.27;1739425;82;21462;-67
2021/01/07 10:49:45;;;;;;;25.60;20.75;;;;;;;3.37;85.86;97654.65;1739360;82;20992;-67
2021/01/07 10:52:31;;;;;;;25.27;20.75;;;;;;;3.47;85.53;97649.73;1769989;80;21376;-67
2021/01/07 10:55:20;;;;;;;23.75;20.55;;;;;;;3.55;85.04;97647.53;1739378;82;20964;-67
2021/01/07 10:58:20;;;;;;;27.80;19.60;;;;;;;3.64;84.62;97647.97;1744915;80;20952;-67
2021/01/07 11:01:24;;;;;;;24.23;20.43;;;;;;;3.69;83.88;97635.30;1805781;79;20933;-67
2021/01/07 11:04:23;;;;;;;23.27;19.33;;;;;;;3.71;83.58;97634.29;1806040;79;20980;-67
2021/01/07 11:07:10;;;;;;;24.32;21.23;;;;;;;3.75;83.33;97634.52;1739349;82;21305;-68
2021/01/07 11:09:39;;;;;;;25.37;20.60;;;;;;;3.75;83.30;97634.52;1769857;81;20977;-66
2021/01/07 11:12:24;;;;;;;20.52;17.82;;;;;;;3.73;83.30;97628.89;1747248;82;21391;-68
2021/01/07 11:14:59;;;;;;;17.37;15.55;;;;;;;3.70;83.11;97627.73;1817035;79;21005;-68
2021/01/07 11:17:27;;;;;;;18.48;16.57;;;;;;;3.67;83.06;97627.89;1816977;79;20885;-67
2021/01/07 11:19:54;;;;;;;26.57;21.07;;;;;;;3.62;83.24;97627.66;1749960;82;21314;-66
2021/01/07 11:22:28;;;;;;;26.02;22.15;;;;;;;3.60;83.40;97631.36;1780774;80;21015;-67
2021/01/07 11:25:01;;;;;;;28.05;23.75;;;;;;;3.57;83.61;97627.05;1816872;79;20939;-67
2021/01/07 11:27:26;;;;;;;25.82;21.57;;;;;;;3.55;83.80;97628.95;1816318;79;22027;-68
2021/01/07 11:29:54;;;;;;;18.27;16.00;;;;;;;3.55;83.84;97635.59;1749982;82;21021;-66
2021/01/07 11:32:22;;;;;;;16.32;14.55;;;;;;;3.53;83.49;97625.52;1780862;80;21065;-67
2021/01/07 11:34:50;;;;;;;15.28;13.65;;;;;;;3.52;83.42;97629.11;1816863;79;20952;-66
2021/01/07 11:37:42;;;;;;;14.05;12.43;;;;;;;3.53;83.46;97629.95;1816844;79;21356;-67